Bizerte, Tunisia
Current Conditions -  °F | °C
As of 2:00 PM on Thursday 23 Oct 2014 (Local Time) from DTTB Reporting Station
Scattered Clouds Scattered Clouds  
Wind Chill: 72°   Ceiling: Unl
Heat Index: 72°   Visibility: 6mi
Dew Point: 54°   Wind: 30mph
Humidity: 53%   Direction: 290°WNW
Pressure: 29.91"   Gusts: 46mph
Location:  37.28°N, 9.87°E
Report Text: DTTB 231300Z 29026G40KT 250V340 9999 SCT020 22/12 Q1013
Loading
Personal Weather Stations






























Interactive Weather Map
Tropical Storm Tracking
New forecast layout! Learn more

10-Day Weather Forecast

Advertisements
Track Severe Weather on mobile